Time;durP1;ratioP1;P1;durP2;ratioP2;P2;SDS_P1;SDS_P2;PMS_P1;PMS_P2;Temp;Humidity;BMP_temperature;BMP_pressure;BME280_temperature;BME280_humidity;BME280_pressure;Samples;Min_cycle;Max_cycle;Signal;HPM_P1;HPM_P2
2022/08/03 00:01:22;;;;;;;8.38;5.47;;;;;;;21.01;47.83;99880.69;5044929;28;20393;-56
2022/08/03 00:03:47;;;;;;;8.40;5.22;;;;;;;20.97;48.03;99879.34;5031394;28;20030;-52
2022/08/03 00:06:13;;;;;;;12.38;6.78;;;;;;;20.99;47.59;99885.47;5031164;28;20505;-55
2022/08/03 00:08:39;;;;;;;12.05;6.10;;;;;;;20.94;48.47;99877.00;5029776;28;20481;-57
2022/08/03 00:11:05;;;;;;;14.00;6.55;;;;;;;20.91;48.09;99877.41;5033266;28;20040;-54
2022/08/03 00:13:32;;;;;;;12.80;5.97;;;;;;;20.90;48.04;99886.59;5050916;28;20123;-53
2022/08/03 00:15:57;;;;;;;8.70;6.55;;;;;;;20.89;48.36;99884.91;5036006;28;20076;-53
2022/08/03 00:18:23;;;;;;;10.40;5.82;;;;;;;20.93;47.05;99889.78;5030855;28;20065;-55
2022/08/03 00:20:48;;;;;;;11.98;6.63;;;;;;;20.99;46.90;99877.31;5031038;28;20033;-56
2022/08/03 00:23:14;;;;;;;8.98;5.70;;;;;;;21.00;47.32;99883.59;5031773;28;20021;-54
2022/08/03 00:25:39;;;;;;;10.75;6.43;;;;;;;21.01;47.22;99888.00;5030833;28;20029;-57
2022/08/03 00:28:05;;;;;;;10.55;6.55;;;;;;;21.05;46.96;99892.88;5030687;28;20088;-55
2022/08/03 00:30:31;;;;;;;13.52;6.85;;;;;;;21.04;47.21;99893.91;5030951;28;20036;-54
2022/08/03 00:32:58;;;;;;;15.77;6.82;;;;;;;21.03;47.16;99881.34;5047866;28;20112;-54
2022/08/03 00:35:24;;;;;;;11.27;6.50;;;;;;;20.95;47.77;99886.88;5050660;28;20065;-58
2022/08/03 00:37:49;;;;;;;13.60;6.65;;;;;;;20.93;47.94;99875.34;5050663;28;20064;-56
2022/08/03 00:40:16;;;;;;;10.15;6.15;;;;;;;20.89;47.79;99879.47;5050436;28;20047;-56
2022/08/03 00:42:51;;;;;;;12.57;6.75;;;;;;;20.97;47.81;99882.06;5037656;28;20454;-52
2022/08/03 00:45:17;;;;;;;14.98;7.05;;;;;;;20.82;48.75;99889.44;5034678;28;20025;-56
2022/08/03 00:47:43;;;;;;;12.20;6.75;;;;;;;20.72;49.48;99892.41;5034565;28;20912;-53
2022/08/03 00:50:09;;;;;;;10.60;6.95;;;;;;;20.64;49.81;99885.19;5034300;28;20029;-55
2022/08/03 00:52:35;;;;;;;13.15;7.38;;;;;;;20.54;50.06;99866.44;5045669;28;20540;-55
2022/08/03 00:55:02;;;;;;;13.23;6.82;;;;;;;20.51;50.31;99878.56;5054584;28;20107;-52
2022/08/03 00:57:32;;;;;;;13.15;6.90;;;;;;;20.49;50.78;99871.59;5054220;28;20040;-54
2022/08/03 01:00:01;;;;;;;11.43;7.13;;;;;;;20.37;50.74;99872.06;5054220;28;20029;-55
2022/08/03 01:02:29;;;;;;;13.38;7.25;;;;;;;20.36;51.03;99873.09;5042313;28;20060;-56
2022/08/03 01:04:55;;;;;;;13.10;7.70;;;;;;;20.27;51.14;99873.41;5034267;28;20064;-56
2022/08/03 01:07:32;;;;;;;18.52;7.63;;;;;;;20.31;51.26;99872.81;5034079;28;20085;-52
2022/08/03 01:10:37;;;;;;;11.50;7.85;;;;;;;20.34;51.06;99872.44;5034676;28;20044;-52
2022/08/03 01:13:41;;;;;;;12.10;7.72;;;;;;;20.30;51.29;99875.75;5032875;28;20437;-54
2022/08/03 01:16:28;;;;;;;14.73;7.57;;;;;;;20.21;51.44;99875.81;5032523;28;20057;-57
2022/08/03 01:19:00;;;;;;;;;;;;;;;20.38;49.70;99870.19;5034715;28;20045;-58
2022/08/03 01:21:30;;;;;;;11.15;6.97;;;;;;;20.08;51.91;99871.00;5039794;28;19917;-58
2022/08/03 01:24:21;;;;;;;12.48;8.00;;;;;;;20.11;51.58;99875.25;5053956;28;20179;-59
2022/08/03 01:27:03;;;;;;;13.57;7.40;;;;;;;20.10;51.98;99872.69;5053728;28;20462;-54
2022/08/03 01:29:41;;;;;;;17.55;8.15;;;;;;;20.03;51.59;99873.44;5053876;28;20037;-53
2022/08/03 01:32:14;;;;;;;16.50;7.97;;;;;;;20.08;52.07;99876.44;5040716;28;20379;-53
2022/08/03 01:34:46;;;;;;;15.88;7.60;;;;;;;20.10;52.13;99881.72;5033633;28;20385;-53
2022/08/03 01:37:19;;;;;;;14.98;7.80;;;;;;;20.10;51.75;99881.72;5032379;28;20116;-55
2022/08/03 01:39:45;;;;;;;11.93;8.38;;;;;;;20.04;52.18;99886.00;5033660;28;20025;-54
2022/08/03 01:42:13;;;;;;;13.23;8.10;;;;;;;20.05;52.21;99884.16;5049343;28;20029;-56
2022/08/03 01:44:41;;;;;;;10.65;8.38;;;;;;;20.06;52.63;99883.13;5051181;28;20396;-53
2022/08/03 01:47:09;;;;;;;16.00;9.05;;;;;;;20.04;52.46;99887.88;5033359;28;20032;-57
2022/08/03 01:49:39;;;;;;;12.35;7.97;;;;;;;20.09;52.28;99890.91;5033561;28;20033;-54
2022/08/03 01:52:06;;;;;;;19.13;8.35;;;;;;;19.93;52.80;99873.69;5047834;28;20539;-53
2022/08/03 01:54:40;;;;;;;11.65;8.20;;;;;;;20.05;52.78;99889.56;5053097;28;20469;-54
2022/08/03 01:57:07;;;;;;;14.75;8.55;;;;;;;20.01;52.39;99891.81;5032725;28;20047;-53
2022/08/03 01:59:35;;;;;;;12.90;8.20;;;;;;;20.07;52.22;99887.53;5049314;28;20033;-55
2022/08/03 02:02:03;;;;;;;15.65;8.30;;;;;;;20.11;51.87;99877.97;5040209;28;20416;-53
2022/08/03 02:04:29;;;;;;;10.52;7.90;;;;;;;20.25;51.38;99883.59;5033027;28;20026;-57
2022/08/03 02:06:56;;;;;;;9.23;7.32;;;;;;;20.29;51.81;99884.94;5032832;28;20482;-54
2022/08/03 02:09:22;;;;;;;11.48;8.52;;;;;;;20.29;51.66;99879.50;5046786;28;20040;-57
2022/08/03 02:11:50;;;;;;;11.35;7.90;;;;;;;20.39;51.71;99896.34;5052713;28;20036;-51
2022/08/03 02:14:17;;;;;;;11.27;8.13;;;;;;;20.40;51.29;99881.72;5052501;28;20033;-51
2022/08/03 02:16:44;;;;;;;9.02;8.10;;;;;;;20.48;51.14;99887.06;5045127;28;20087;-51
2022/08/03 02:19:10;;;;;;;14.50;8.30;;;;;;;20.47;50.70;99885.38;5045178;28;20128;-57
2022/08/03 02:21:37;;;;;;;12.40;7.90;;;;;;;20.62;50.74;99889.97;5052450;28;20041;-54
2022/08/03 02:24:05;;;;;;;14.75;8.10;;;;;;;20.77;50.21;99896.28;5052793;28;20040;-57
2022/08/03 02:26:31;;;;;;;13.57;7.68;;;;;;;20.86;50.04;99896.19;5052926;28;20053;-56
2022/08/03 02:29:10;;;;;;;11.30;7.93;;;;;;;21.10;49.57;99896.88;5052606;28;20044;-53
2022/08/03 02:31:37;;;;;;;14.88;8.02;;;;;;;21.10;49.35;99892.31;5052367;28;20131;-56
2022/08/03 02:34:08;;;;;;;9.65;8.05;;;;;;;21.27;49.72;99902.94;5033974;28;20037;-52
2022/08/03 02:36:38;;;;;;;11.45;8.57;;;;;;;21.37;48.81;99898.03;5032387;28;20033;-54
2022/08/03 02:39:06;;;;;;;11.23;7.22;;;;;;;21.43;48.58;99888.25;5042594;28;20100;-55
2022/08/03 02:41:44;;;;;;;10.85;8.10;;;;;;;21.55;47.93;99877.66;5052664;28;20029;-55
2022/08/03 02:44:11;;;;;;;10.27;7.80;;;;;;;21.76;47.78;99898.66;5032593;28;20033;-58
2022/08/03 02:46:39;;;;;;;12.40;8.30;;;;;;;21.77;47.57;99893.00;5048624;28;20028;-53
2022/08/03 02:49:06;;;;;;;11.18;8.23;;;;;;;21.76;48.08;99888.59;5041069;28;20025;-56
2022/08/03 02:51:34;;;;;;;13.45;8.02;;;;;;;21.82;47.72;99897.88;5032395;28;20543;-56
2022/08/03 02:54:01;;;;;;;14.73;8.43;;;;;;;21.93;47.71;99897.31;5032295;28;20060;-56
2022/08/03 02:56:28;;;;;;;13.40;8.30;;;;;;;22.04;47.33;99898.66;5032539;28;20029;-56
2022/08/03 02:58:56;;;;;;;14.10;8.65;;;;;;;22.16;47.00;99904.41;5040764;28;20094;-55
2022/08/03 03:01:24;;;;;;;11.80;8.25;;;;;;;22.29;47.28;99894.66;5051812;28;20033;-55
2022/08/03 03:03:52;;;;;;;14.43;8.63;;;;;;;22.41;46.44;99909.41;5049889;28;20040;-53
2022/08/03 03:06:18;;;;;;;10.68;8.18;;;;;;;22.49;46.14;99906.59;5033930;28;20071;-53
2022/08/03 03:08:45;;;;;;;12.88;8.60;;;;;;;22.61;46.25;99903.28;5044097;28;20037;-58
2022/08/03 03:11:12;;;;;;;11.68;9.13;;;;;;;22.74;45.68;99908.81;5031808;28;20043;-57
2022/08/03 03:13:39;;;;;;;14.52;9.20;;;;;;;22.80;46.00;99907.19;5031406;28;20045;-55
2022/08/03 03:16:05;;;;;;;12.35;8.88;;;;;;;22.92;45.54;99902.81;5031999;28;20034;-55
2022/08/03 03:18:33;;;;;;;12.13;9.57;;;;;;;23.04;45.38;99914.00;5037068;28;20029;-55
2022/08/03 03:21:00;;;;;;;16.80;9.00;;;;;;;23.13;45.00;99913.81;5040311;28;20500;-54
2022/08/03 03:23:28;;;;;;;12.05;9.35;;;;;;;23.30;44.60;99914.34;5031516;28;20371;-56
2022/08/03 03:25:55;;;;;;;14.32;9.45;;;;;;;23.51;43.85;99913.31;5031830;28;20045;-59
2022/08/03 03:28:22;;;;;;;17.17;9.80;;;;;;;23.73;43.55;99915.88;5035660;28;20021;-56
2022/08/03 03:30:48;;;;;;;16.23;9.30;;;;;;;23.94;43.01;99912.94;5050862;28;20024;-56
2022/08/03 03:33:14;;;;;;;13.52;9.43;;;;;;;24.15;42.33;99913.81;5050130;28;20112;-58
2022/08/03 03:35:42;;;;;;;15.10;9.90;;;;;;;24.32;42.12;99919.69;5048936;28;20033;-55
2022/08/03 03:38:07;;;;;;;14.27;9.35;;;;;;;24.47;41.84;99921.34;5032968;28;20409;-54
2022/08/03 03:40:37;;;;;;;16.02;9.95;;;;;;;24.60;41.50;99920.50;5051052;28;20033;-63
2022/08/03 03:43:07;;;;;;;16.15;10.35;;;;;;;24.74;41.40;99918.56;5051636;28;20088;-55
2022/08/03 03:45:34;;;;;;;14.20;10.15;;;;;;;24.97;40.96;99918.06;5051622;28;20120;-53
2022/08/03 03:48:00;;;;;;;15.02;10.35;;;;;;;25.47;39.89;99916.59;5050927;28;20039;-53
2022/08/03 03:50:28;;;;;;;15.77;10.15;;;;;;;26.26;38.25;99909.88;5029914;28;20465;-54
2022/08/03 03:52:54;;;;;;;15.82;10.65;;;;;;;27.17;36.27;99903.81;5042705;28;20041;-57
2022/08/03 03:55:19;;;;;;;18.17;11.18;;;;;;;28.05;34.91;99908.88;5042795;28;20536;-55
2022/08/03 03:57:45;;;;;;;14.00;10.43;;;;;;;28.83;33.13;99911.53;5031098;28;20033;-56
2022/08/03 04:00:12;;;;;;;13.30;9.88;;;;;;;29.64;31.64;99924.41;5049042;28;20029;-57
2022/08/03 04:02:38;;;;;;;16.23;10.40;;;;;;;30.29;30.54;99918.59;5050203;28;20036;-55
2022/08/03 04:11:11;;;;;;;13.32;10.07;;;;;;;33.20;26.56;99923.00;5030726;28;20080;-59
2022/08/03 04:13:50;;;;;;;13.82;10.77;;;;;;;34.00;25.91;99923.69;5030278;28;20405;-57
2022/08/03 04:16:19;;;;;;;14.65;10.55;;;;;;;34.47;24.39;99932.78;5032949;28;20034;-56
2022/08/03 04:18:58;;;;;;;14.93;11.35;;;;;;;35.15;23.70;99932.59;5044421;28;20033;-56
2022/08/03 04:21:24;;;;;;;13.90;10.18;;;;;;;36.19;22.50;99928.00;5054986;28;20037;-55
2022/08/03 04:23:54;;;;;;;14.30;10.40;;;;;;;37.13;20.92;99935.31;5050497;28;20030;-57
2022/08/03 04:26:21;;;;;;;14.23;10.25;;;;;;;37.65;19.93;99934.63;5034530;28;20414;-58
2022/08/03 04:28:50;;;;;;;17.23;10.60;;;;;;;37.83;20.06;99927.34;5044704;28;20037;-54
2022/08/03 04:31:19;;;;;;;13.90;10.38;;;;;;;38.15;19.76;99926.53;5054722;28;20155;-55
2022/08/03 04:33:45;;;;;;;12.93;9.93;;;;;;;38.67;19.08;99941.50;5054790;28;20028;-54
2022/08/03 04:36:18;;;;;;;15.15;10.85;;;;;;;39.18;19.00;99934.03;5054739;28;20476;-53
2022/08/03 04:39:12;;;;;;;13.13;10.07;;;;;;;39.94;18.74;99934.53;5044891;28;20108;-54
2022/08/03 04:41:39;;;;;;;15.35;9.63;;;;;;;39.41;18.17;99923.72;5034580;28;20099;-55
2022/08/03 04:44:06;;;;;;;13.88;10.68;;;;;;;39.48;17.84;99934.47;5034354;28;20033;-56
2022/08/03 04:46:35;;;;;;;15.27;10.07;;;;;;;39.79;17.73;99930.94;5034585;28;20075;-55
2022/08/03 04:49:02;;;;;;;17.23;10.32;;;;;;;40.20;17.44;99931.88;5034541;28;20356;-57
2022/08/03 04:51:28;;;;;;;16.00;9.82;;;;;;;40.82;16.68;99933.00;5033154;28;20492;-57
2022/08/03 04:53:53;;;;;;;16.25;9.32;;;;;;;41.33;16.31;99927.81;5034669;28;20125;-53
2022/08/03 04:56:19;;;;;;;12.27;9.75;;;;;;;41.60;16.04;99930.63;5034274;28;20112;-58
2022/08/03 04:58:44;;;;;;;11.50;8.93;;;;;;;41.85;15.81;99922.53;5034176;28;20029;-54
2022/08/03 05:01:10;;;;;;;10.82;8.30;;;;;;;42.41;15.47;99927.34;5034152;28;20029;-57
2022/08/03 05:03:36;;;;;;;11.85;9.32;;;;;;;42.89;14.73;99933.78;5049392;28;20029;-56
2022/08/03 05:06:02;;;;;;;11.20;8.00;;;;;;;43.10;14.32;99931.00;5053418;28;20131;-56
2022/08/03 05:08:27;;;;;;;11.93;7.60;;;;;;;43.18;13.98;99926.47;5046606;28;20441;-57
2022/08/03 05:10:53;;;;;;;12.05;6.95;;;;;;;43.69;13.40;99939.66;5033888;28;20033;-58
2022/08/03 05:13:18;;;;;;;12.98;6.68;;;;;;;44.09;13.48;99919.34;5034015;28;20069;-59
2022/08/03 05:15:44;;;;;;;11.13;7.07;;;;;;;44.80;12.81;99921.31;5036063;28;20033;-58
2022/08/03 05:18:09;;;;;;;9.82;7.65;;;;;;;45.61;12.03;99922.56;5043377;28;20029;-62
2022/08/03 05:20:35;;;;;;;9.00;6.90;;;;;;;46.43;11.63;99929.66;5041725;28;20032;-59
2022/08/03 05:23:02;;;;;;;8.15;6.78;;;;;;;46.56;11.67;99923.94;5043947;28;20079;-56
2022/08/03 05:25:28;;;;;;;10.25;6.30;;;;;;;46.96;11.25;99939.84;5042255;28;20064;-55
2022/08/03 05:27:54;;;;;;;7.28;6.40;;;;;;;47.50;11.06;99933.72;5042906;28;20049;-57
2022/08/03 05:30:19;;;;;;;6.78;5.85;;;;;;;48.04;10.11;99923.47;5053657;28;20124;-59
2022/08/03 05:32:45;;;;;;;9.38;6.88;;;;;;;48.45;10.23;99928.66;5053893;28;20109;-56
2022/08/03 05:35:10;;;;;;;9.65;6.60;;;;;;;48.70;10.12;99931.88;5042938;28;20392;-58
2022/08/03 05:37:36;;;;;;;6.82;6.03;;;;;;;48.92;9.48;99939.94;5041643;28;20111;-58
2022/08/03 05:40:02;;;;;;;8.23;6.15;;;;;;;49.24;9.43;99943.25;5042480;28;20021;-60
2022/08/03 05:42:28;;;;;;;9.13;6.13;;;;;;;49.13;9.71;99943.06;5043684;28;20032;-59
2022/08/03 05:44:54;;;;;;;6.10;5.22;;;;;;;48.90;9.27;99936.66;5041123;28;20025;-59
2022/08/03 05:47:19;;;;;;;10.55;5.88;;;;;;;48.67;8.97;99929.78;5033282;28;20049;-61
2022/08/03 05:49:45;;;;;;;7.07;5.50;;;;;;;48.51;9.43;99937.66;5038035;28;20064;-60
2022/08/03 05:52:10;;;;;;;6.77;4.90;;;;;;;49.06;8.95;99933.63;5043703;28;20492;-67
2022/08/03 05:54:36;;;;;;;6.45;5.10;;;;;;;49.79;8.78;99932.50;5042878;28;20273;-59
2022/08/03 05:57:01;;;;;;;8.32;5.35;;;;;;;50.26;8.16;99928.13;5041661;28;20041;-59
2022/08/03 05:59:27;;;;;;;6.07;4.60;;;;;;;50.66;8.20;99933.34;5038632;28;20041;-59
2022/08/03 06:01:52;;;;;;;6.30;4.60;;;;;;;51.30;7.70;99937.81;5042203;28;20029;-59
2022/08/03 06:04:18;;;;;;;5.63;4.30;;;;;;;51.49;7.40;99942.38;5043116;28;20057;-58
2022/08/03 06:06:44;;;;;;;6.68;4.47;;;;;;;51.95;7.05;99932.28;5039929;28;20041;-60
2022/08/03 06:09:09;;;;;;;7.03;4.30;;;;;;;52.50;6.59;99930.31;5043651;28;20037;-59
2022/08/03 06:11:36;;;;;;;9.00;5.30;;;;;;;52.48;6.71;99929.91;5051128;28;20028;-58
2022/08/03 06:14:02;;;;;;;9.40;5.38;;;;;;;52.72;6.78;99918.88;5052604;28;20382;-59
2022/08/03 06:16:27;;;;;;;7.28;5.20;;;;;;;53.14;6.40;99927.75;5052102;28;20465;-59
2022/08/03 06:18:52;;;;;;;9.05;4.50;;;;;;;53.67;6.04;99927.91;5041037;28;20029;-60
2022/08/03 06:21:18;;;;;;;7.10;4.88;;;;;;;54.27;5.63;99912.75;5032966;28;20044;-59
2022/08/03 06:23:45;;;;;;;5.90;5.28;;;;;;;54.45;5.74;99935.53;5032688;28;20030;-59
2022/08/03 06:26:10;;;;;;;7.20;5.05;;;;;;;54.18;6.07;99934.13;5032986;28;20052;-60
2022/08/03 06:28:36;;;;;;;7.03;5.15;;;;;;;54.46;6.13;99931.44;5036058;28;20029;-59
2022/08/03 06:31:02;;;;;;;10.02;5.65;;;;;;;54.73;5.43;99922.16;5032606;28;20092;-59
2022/08/03 06:33:28;;;;;;;6.13;5.10;;;;;;;54.91;5.72;99933.44;5032433;28;20044;-59
2022/08/03 06:35:53;;;;;;;5.65;5.15;;;;;;;54.95;5.43;99932.16;5032646;28;20112;-59
2022/08/03 06:38:19;;;;;;;8.27;5.10;;;;;;;52.26;6.45;99940.50;5042800;28;20037;-58
2022/08/03 06:40:44;;;;;;;6.25;4.82;;;;;;;50.10;7.77;99928.38;5050272;28;20087;-59
2022/08/03 06:43:10;;;;;;;6.30;4.70;;;;;;;49.90;8.00;99936.31;5050636;28;20035;-61
2022/08/03 06:45:36;;;;;;;4.72;4.00;;;;;;;50.57;7.34;99930.81;5052150;28;20037;-60
2022/08/03 06:48:07;;;;;;;4.03;3.22;;;;;;;51.63;6.80;99941.59;5044199;28;20060;-58
2022/08/03 06:50:33;;;;;;;4.40;3.88;;;;;;;51.83;6.66;99919.22;5032208;28;20036;-59
2022/08/03 06:53:00;;;;;;;4.60;3.83;;;;;;;51.23;7.22;99937.75;5040545;28;20065;-60
2022/08/03 06:55:26;;;;;;;5.43;4.10;;;;;;;50.50;7.48;99947.84;5031924;28;20100;-60
2022/08/03 06:57:52;;;;;;;4.07;3.05;;;;;;;49.42;7.62;99937.78;5038188;28;20110;-59
2022/08/03 07:00:18;;;;;;;5.65;3.35;;;;;;;48.67;8.25;99923.31;5051790;28;20040;-60
2022/08/03 07:02:43;;;;;;;5.13;3.35;;;;;;;48.34;8.55;99942.63;5038877;28;20029;-59
2022/08/03 07:05:09;;;;;;;4.20;3.40;;;;;;;48.17;8.68;99938.28;5032029;28;20441;-59
2022/08/03 07:07:36;;;;;;;5.18;3.50;;;;;;;48.24;8.54;99932.72;5036079;28;20859;-58
2022/08/03 07:10:02;;;;;;;4.78;3.30;;;;;;;49.15;8.34;99933.38;5051971;28;20064;-59
2022/08/03 07:12:30;;;;;;;5.22;3.75;;;;;;;50.87;7.55;99944.06;5048405;28;20039;-61
2022/08/03 07:14:57;;;;;;;7.65;3.50;;;;;;;51.44;6.62;99939.06;5037112;28;20036;-60
2022/08/03 07:17:22;;;;;;;4.88;3.30;;;;;;;51.24;6.66;99947.94;5039895;28;20045;-68
2022/08/03 07:19:48;;;;;;;3.88;3.30;;;;;;;51.47;6.58;99933.41;5040906;28;20489;-60
2022/08/03 07:22:14;;;;;;;4.38;3.20;;;;;;;52.22;5.95;99931.94;5038426;28;20029;-61
2022/08/03 07:24:40;;;;;;;6.20;3.50;;;;;;;52.87;5.42;99951.09;5039212;28;20021;-61
2022/08/03 07:27:07;;;;;;;4.65;3.53;;;;;;;52.46;5.59;99948.69;5047671;28;20064;-61
2022/08/03 07:29:36;;;;;;;3.47;3.20;;;;;;;52.84;5.93;99957.63;5050334;28;20029;-60
2022/08/03 07:32:03;;;;;;;4.07;3.67;;;;;;;52.90;5.15;99947.41;5051073;28;20032;-64
2022/08/03 07:34:29;;;;;;;4.28;3.30;;;;;;;52.18;5.40;99962.53;5049708;28;20070;-60
2022/08/03 07:36:54;;;;;;;4.07;3.22;;;;;;;50.66;6.24;99919.09;5049214;28;20028;-62
2022/08/03 07:39:20;;;;;;;3.80;3.38;;;;;;;50.53;6.65;99927.13;5044760;28;20035;-60
2022/08/03 07:41:46;;;;;;;3.63;3.20;;;;;;;50.04;7.00;99929.13;5037441;28;20025;-60
2022/08/03 07:44:12;;;;;;;4.55;3.50;;;;;;;50.13;6.75;99935.31;5041049;28;20524;-61
2022/08/03 07:46:37;;;;;;;4.38;3.30;;;;;;;49.90;6.39;99944.88;5039473;28;20124;-60
2022/08/03 07:49:03;;;;;;;3.30;3.10;;;;;;;49.42;7.08;99942.63;5040505;28;20041;-61
2022/08/03 07:51:28;;;;;;;4.70;3.42;;;;;;;49.71;6.89;99934.47;5039027;28;20032;-61
2022/08/03 07:53:56;;;;;;;4.75;3.25;;;;;;;49.75;7.10;99937.34;5040061;28;20104;-59
2022/08/03 07:56:23;;;;;;;3.53;3.22;;;;;;;50.58;6.29;99931.63;5040506;28;20048;-61
2022/08/03 07:58:50;;;;;;;3.55;3.22;;;;;;;51.94;5.82;99947.78;5040494;28;20025;-61
2022/08/03 08:01:18;;;;;;;4.03;3.13;;;;;;;52.10;5.49;99944.59;5040607;28;20581;-63
2022/08/03 08:03:44;;;;;;;4.43;2.95;;;;;;;52.02;5.40;99954.34;5039028;28;20036;-62
2022/08/03 08:06:10;;;;;;;4.18;3.30;;;;;;;52.00;5.51;99956.81;5039069;28;20045;-63
2022/08/03 08:08:37;;;;;;;5.22;3.40;;;;;;;50.79;6.06;99948.09;5038689;28;20048;-60
2022/08/03 08:11:02;;;;;;;4.15;3.20;;;;;;;50.38;6.16;99940.44;5033250;28;20037;-61
2022/08/03 08:13:28;;;;;;;3.67;3.20;;;;;;;50.25;6.25;99952.13;5049309;28;20133;-61
2022/08/03 08:15:53;;;;;;;3.28;3.00;;;;;;;49.51;6.71;99934.66;5034845;28;20110;-61
2022/08/03 08:18:19;;;;;;;5.07;3.22;;;;;;;49.47;7.03;99945.16;5040726;28;20033;-63
2022/08/03 08:20:44;;;;;;;4.47;2.95;;;;;;;48.38;7.61;99943.50;5030851;28;20057;-63
2022/08/03 08:23:10;;;;;;;7.53;2.90;;;;;;;46.92;8.20;99938.94;5045328;28;20465;-61
2022/08/03 08:25:35;;;;;;;3.47;2.97;;;;;;;44.91;9.57;99925.31;5031432;28;20033;-63
2022/08/03 08:28:04;;;;;;;5.03;3.13;;;;;;;42.23;11.32;99937.84;5030634;28;20481;-62
2022/08/03 08:30:31;;;;;;;3.00;2.58;;;;;;;39.99;12.99;99946.44;5025742;28;20645;-62
2022/08/03 08:32:57;;;;;;;5.53;3.10;;;;;;;38.46;14.49;99953.09;5049042;28;20473;-60
2022/08/03 08:35:23;;;;;;;6.15;3.28;;;;;;;37.19;15.46;99943.31;5038801;28;20124;-57
2022/08/03 08:37:49;;;;;;;4.07;3.33;;;;;;;36.35;16.41;99906.38;5038284;28;20132;-64
2022/08/03 08:40:15;;;;;;;4.97;3.55;;;;;;;36.03;16.94;99937.59;5041284;28;20063;-63
2022/08/03 08:42:42;;;;;;;5.63;3.30;;;;;;;35.74;17.62;99947.56;5040070;28;20061;-60
2022/08/03 08:45:08;;;;;;;6.75;3.70;;;;;;;35.60;17.78;99946.56;5040515;28;20018;-60
2022/08/03 08:47:39;;;;;;;3.50;3.20;;;;;;;35.39;17.39;99932.75;5038749;28;20515;-61
2022/08/03 08:50:07;;;;;;;4.32;3.20;;;;;;;35.00;18.51;99944.59;5039404;28;20469;-62
2022/08/03 08:52:34;;;;;;;6.65;3.20;;;;;;;34.76;19.02;99945.25;5041489;28;20100;-60
2022/08/03 08:55:06;;;;;;;6.32;3.95;;;;;;;34.59;19.26;99945.59;5038373;28;20036;-57
2022/08/03 08:57:36;;;;;;;4.93;3.80;;;;;;;34.44;19.89;99955.56;5041109;28;20523;-58
2022/08/03 09:00:08;;;;;;;7.07;4.20;;;;;;;34.14;20.32;99954.50;5041297;28;20480;-61
2022/08/03 09:02:34;;;;;;;7.85;4.53;;;;;;;33.72;21.46;99945.31;5042073;28;20038;-64
2022/08/03 09:05:00;;;;;;;6.70;4.18;;;;;;;33.78;20.55;99943.38;5044257;28;20028;-61
2022/08/03 09:07:27;;;;;;;6.05;4.28;;;;;;;33.74;20.62;99954.19;5039745;28;20444;-64
2022/08/03 09:09:53;;;;;;;4.72;4.22;;;;;;;33.41;21.35;99938.84;5038918;28;20033;-60
2022/08/03 09:12:18;;;;;;;6.50;3.90;;;;;;;33.48;20.72;99950.53;5036295;28;20087;-61
2022/08/03 09:14:44;;;;;;;5.40;4.15;;;;;;;33.72;21.09;99947.25;5038882;28;20021;-59
2022/08/03 09:17:09;;;;;;;9.77;4.30;;;;;;;33.84;21.03;99944.19;5053353;28;20033;-60
2022/08/03 09:19:35;;;;;;;6.60;4.57;;;;;;;33.75;21.11;99941.13;5052118;28;20029;-61
2022/08/03 09:22:17;;;;;;;6.95;4.45;;;;;;;33.69;21.22;99959.75;5038393;28;20039;-60
2022/08/03 09:25:10;;;;;;;5.55;4.53;;;;;;;33.63;21.30;99953.34;5038845;28;20481;-59
2022/08/03 09:27:44;;;;;;;5.70;4.60;;;;;;;33.70;21.15;99960.56;5042183;28;20037;-60
2022/08/03 09:30:14;;;;;;;4.78;4.13;;;;;;;33.74;21.34;99942.25;5045041;28;20033;-61
2022/08/03 09:32:41;;;;;;;4.47;4.03;;;;;;;33.71;21.56;99949.19;5046717;28;20035;-60
2022/08/03 09:35:07;;;;;;;5.50;4.15;;;;;;;33.61;21.76;99932.50;5048155;28;20025;-59
2022/08/03 09:37:33;;;;;;;6.20;4.43;;;;;;;33.77;21.97;99942.53;5048124;28;20179;-60
2022/08/03 09:39:58;;;;;;;4.45;3.80;;;;;;;33.87;21.46;99941.72;5041949;28;20108;-60
2022/08/03 09:42:24;;;;;;;7.93;4.28;;;;;;;33.63;21.44;99924.75;5037486;28;20489;-64
2022/08/03 09:44:50;;;;;;;4.60;4.10;;;;;;;33.43;22.10;99953.31;5039091;28;20025;-61
2022/08/03 09:47:27;;;;;;;4.78;4.35;;;;;;;33.38;21.80;99954.09;5034462;28;20516;-59
2022/08/03 09:50:06;;;;;;;5.85;3.95;;;;;;;33.31;21.99;99950.75;5042566;28;20108;-70
2022/08/03 09:52:33;;;;;;;6.07;4.50;;;;;;;33.09;22.71;99942.66;5039887;28;20044;-60
2022/08/03 09:55:00;;;;;;;4.93;4.20;;;;;;;32.88;23.00;99920.38;5037023;28;20025;-58
2022/08/03 09:57:29;;;;;;;7.63;4.55;;;;;;;32.83;23.39;99921.16;5034964;28;20429;-56
2022/08/03 10:00:10;;;;;;;5.85;4.40;;;;;;;33.19;22.47;99945.44;5047712;28;20037;-60
2022/08/03 10:02:36;;;;;;;6.97;4.57;;;;;;;33.15;22.88;99941.56;5045402;28;20139;-58
2022/08/03 10:05:04;;;;;;;10.02;4.82;;;;;;;33.25;22.00;99940.75;5048870;28;20045;-56
2022/08/03 10:07:41;;;;;;;6.32;4.75;;;;;;;33.44;21.91;99949.41;5039006;28;20073;-55
2022/08/03 10:10:08;;;;;;;6.20;5.00;;;;;;;33.07;22.87;99931.81;5049593;28;20123;-60
2022/08/03 10:12:34;;;;;;;5.07;4.57;;;;;;;32.98;22.33;99931.50;5050978;28;20602;-64
2022/08/03 10:15:00;;;;;;;7.45;4.70;;;;;;;32.84;22.59;99925.59;5041446;28;20104;-62
2022/08/03 10:17:25;;;;;;;4.85;4.25;;;;;;;32.69;23.11;99947.72;5037898;28;20470;-64
2022/08/03 10:19:50;;;;;;;4.85;4.32;;;;;;;32.56;23.38;99932.41;5044130;28;20033;-62
2022/08/03 10:22:25;;;;;;;8.25;4.53;;;;;;;32.78;23.15;99948.84;5042662;28;20043;-59
2022/08/03 10:24:52;;;;;;;5.13;4.50;;;;;;;32.93;22.84;99943.44;5043132;28;20041;-60
2022/08/03 10:27:19;;;;;;;6.20;4.10;;;;;;;33.12;22.97;99942.91;5041099;28;20120;-59
2022/08/03 10:29:50;;;;;;;6.50;3.95;;;;;;;33.34;22.63;99945.50;5040796;28;20052;-59
2022/08/03 10:32:21;;;;;;;5.18;4.68;;;;;;;33.62;22.31;99946.13;5040919;28;20047;-56
2022/08/03 10:34:50;;;;;;;6.68;4.60;;;;;;;33.80;21.96;99952.28;5041360;28;20033;-59
2022/08/03 10:37:17;;;;;;;7.97;4.38;;;;;;;33.81;22.19;99948.38;5040739;28;20047;-55
2022/08/03 10:39:52;;;;;;;4.97;4.43;;;;;;;33.83;22.09;99942.53;5040235;28;20029;-61
2022/08/03 10:42:26;;;;;;;5.70;4.67;;;;;;;34.05;21.66;99942.31;5040663;28;20032;-59
2022/08/03 10:45:17;;;;;;;4.82;4.10;;;;;;;34.22;21.45;99944.78;5044759;28;20254;-53
2022/08/03 10:47:43;;;;;;;6.93;4.40;;;;;;;34.05;21.84;99948.69;5031927;28;20518;-56
2022/08/03 10:50:10;;;;;;;5.85;4.32;;;;;;;34.06;21.74;99949.53;5051652;28;20033;-57
2022/08/03 10:53:05;;;;;;;6.82;4.60;;;;;;;34.28;21.23;99962.28;5047539;28;20036;-55
2022/08/03 10:58:37;;;;;;;7.53;5.00;;;;;;;34.10;20.75;99961.75;5031664;28;20033;-56
2022/08/03 11:01:07;;;;;;;5.57;5.07;;;;;;;33.68;21.29;99955.31;5036901;28;20062;-58
2022/08/03 11:03:53;;;;;;;6.20;5.00;;;;;;;33.47;21.48;99946.09;5039788;28;20083;-56
2022/08/03 11:06:25;;;;;;;5.57;4.60;;;;;;;33.44;21.42;99949.41;5042364;28;20430;-59
2022/08/03 11:09:08;;;;;;;4.78;4.38;;;;;;;33.70;21.03;99957.78;5040106;28;20111;-52
2022/08/03 11:11:39;;;;;;;6.32;4.32;;;;;;;33.71;20.92;99953.91;5045130;28;20076;-56
2022/08/03 11:14:10;;;;;;;5.20;4.70;;;;;;;33.84;20.99;99953.38;5050910;28;20393;-52
2022/08/03 11:16:39;;;;;;;6.55;4.38;;;;;;;33.74;21.47;99956.97;5043235;28;20500;-56
2022/08/03 11:19:11;;;;;;;6.07;4.40;;;;;;;33.77;21.71;99959.19;5040106;28;20032;-56
2022/08/03 11:21:49;;;;;;;6.28;4.60;;;;;;;33.76;21.47;99948.34;5040336;28;20425;-54
2022/08/03 11:24:36;;;;;;;6.55;4.22;;;;;;;33.70;21.91;99952.25;5041536;28;20370;-57
2022/08/03 11:27:23;;;;;;;6.47;4.03;;;;;;;33.56;21.78;99954.72;5042075;28;20043;-55
2022/08/03 11:30:22;;;;;;;5.07;4.20;;;;;;;33.39;22.17;99941.06;5040161;28;20084;-60
2022/08/03 11:32:50;;;;;;;6.30;4.38;;;;;;;32.91;23.06;99931.75;5041225;28;20028;-59
2022/08/03 11:35:26;;;;;;;14.05;5.25;;;;;;;32.74;23.30;99951.31;5040745;28;20470;-55
2022/08/03 11:38:00;;;;;;;6.82;4.22;;;;;;;32.67;22.78;99950.75;5031193;28;20124;-58
2022/08/03 11:40:46;;;;;;;6.20;4.50;;;;;;;32.63;23.06;99942.13;5031909;28;20037;-59
2022/08/03 11:43:20;;;;;;;;;;;;;;;32.95;22.17;99942.31;5031884;28;20080;-58
2022/08/03 11:45:57;;;;;;;5.50;4.20;;;;;;;32.63;22.89;99952.38;5041701;28;19916;-56
2022/08/03 11:48:27;;;;;;;5.18;4.30;;;;;;;32.42;22.69;99945.84;5050251;28;20068;-55